Time;durP1;ratioP1;P1;durP2;ratioP2;P2;SDS_P1;SDS_P2;PMS_P1;PMS_P2;Temp;Humidity;BMP_temperature;BMP_pressure;BME280_temperature;BME280_humidity;BME280_pressure;Samples;Min_cycle;Max_cycle;Signal;HPM_P1;HPM_P2
2021/12/17 00:00:17;;;;;;;142.75;62.40;;;;;;;-0.12;100.00;101024.55;1591209;90;21146;-80
2021/12/17 00:03:10;;;;;;;132.15;57.15;;;;;;;-0.08;100.00;101012.09;1586365;88;21579;-80
2021/12/17 00:05:32;;;;;;;147.50;61.50;;;;;;;-0.08;100.00;101017.22;1588605;90;21093;-79
2021/12/17 00:07:52;;;;;;;136.80;57.88;;;;;;;-0.06;100.00;101012.05;1569252;90;21141;-79
2021/12/17 00:10:19;;;;;;;124.78;56.70;;;;;;;-0.04;100.00;101000.88;1572252;90;21574;-80
2021/12/17 00:12:46;;;;;;;134.00;58.02;;;;;;;-0.02;100.00;101009.38;1591477;90;21162;-80
2021/12/17 00:15:14;;;;;;;127.80;56.48;;;;;;;0.01;100.00;100997.39;1591815;90;21054;-80
2021/12/17 00:17:52;;;;;;;128.15;53.68;;;;;;;-0.01;100.00;100990.58;1591473;90;21721;-81
2021/12/17 00:53:16;;;;;;;62.88;29.98;;;;;;;-0.04;100.00;100965.03;1571699;90;21677;-80
2021/12/17 00:55:39;;;;;;;62.73;30.40;;;;;;;-0.08;100.00;100959.61;1568817;90;21079;-80
2021/12/17 00:58:06;;;;;;;60.85;29.92;;;;;;;-0.10;100.00;100960.08;1591819;90;21618;-79
2021/12/17 01:00:33;;;;;;;57.15;29.52;;;;;;;-0.13;100.00;100953.78;1571236;90;22372;-80
2021/12/17 01:03:01;;;;;;;67.08;32.08;;;;;;;-0.15;100.00;100952.97;1591758;90;21628;-80
2021/12/17 01:05:30;;;;;;;66.90;30.30;;;;;;;-0.13;100.00;100952.50;1591303;90;21176;-79
2021/12/17 01:08:00;;;;;;;53.83;26.73;;;;;;;-0.11;100.00;100938.37;1591572;90;21054;-80
2021/12/17 01:10:35;;;;;;;51.90;25.23;;;;;;;-0.15;100.00;100928.64;1591259;90;21065;-80
2021/12/17 01:13:08;;;;;;;49.58;25.90;;;;;;;-0.17;100.00;100923.58;1588869;88;21622;-80
2021/12/17 01:15:40;;;;;;;56.45;27.35;;;;;;;-0.15;100.00;100926.09;1591598;88;21532;-80
2021/12/17 01:18:15;;;;;;;54.83;25.77;;;;;;;-0.14;100.00;100925.20;1586531;88;21112;-79
2021/12/17 01:21:06;;;;;;;47.05;23.90;;;;;;;-0.14;100.00;100917.95;1588666;88;21084;-83
2021/12/17 01:43:04;;;;;;;45.25;22.98;;;;;;;-0.10;100.00;100882.00;1607041;87;21093;-80
2021/12/17 01:45:37;;;;;;;41.98;22.70;;;;;;;-0.07;100.00;100877.23;1580435;89;21181;-79
2021/12/17 01:48:10;;;;;;;42.05;20.75;;;;;;;-0.08;100.00;100878.97;1579294;89;21127;-80
2021/12/17 01:56:39;;;;;;;32.90;18.45;;;;;;;0.04;100.00;100864.16;1571315;89;21145;-80
2021/12/17 01:59:22;;;;;;;34.88;18.05;;;;;;;0.11;100.00;100862.66;1579721;89;21144;-80
2021/12/17 02:01:46;;;;;;;35.90;19.37;;;;;;;0.16;100.00;100856.12;1580144;89;21543;-80
2021/12/17 02:04:13;;;;;;;33.42;18.87;;;;;;;0.20;100.00;100851.76;1580267;89;21597;-80
2021/12/17 02:06:40;;;;;;;33.35;18.27;;;;;;;0.25;100.00;100849.89;1580208;89;21666;-79
2021/12/17 02:29:37;;;;;;;48.68;26.02;;;;;;;0.10;100.00;100807.20;1572102;89;21411;-80
2021/12/17 02:31:45;;;;;;;48.25;25.52;;;;;;;0.05;100.00;100806.50;1579231;89;21121;-79
2021/12/17 02:36:46;;;;;;;49.53;25.02;;;;;;;-0.04;100.00;100797.33;1579871;89;21022;-80
2021/12/17 02:47:19;;;;;;;41.23;22.82;;;;;;;-0.05;100.00;100789.70;1563460;90;21148;-79
2021/12/17 02:49:48;;;;;;;39.08;21.48;;;;;;;-0.07;100.00;100788.48;1572592;89;21099;-79
2021/12/17 02:52:18;;;;;;;39.55;20.80;;;;;;;-0.11;100.00;100786.88;1573857;91;21163;-80
2021/12/17 02:54:46;;;;;;;40.12;22.77;;;;;;;-0.08;100.00;100792.38;1597940;88;21113;-79
2021/12/17 02:57:13;;;;;;;38.42;21.73;;;;;;;-0.05;100.00;100785.86;1593012;89;21468;-81
2021/12/17 02:59:40;;;;;;;42.65;23.20;;;;;;;-0.02;100.00;100779.39;1589019;89;21097;-79
2021/12/17 03:02:09;;;;;;;42.15;22.35;;;;;;;-0.04;100.00;100776.85;1589184;89;21113;-79
2021/12/17 03:04:41;;;;;;;43.38;22.75;;;;;;;-0.03;100.00;100777.25;1573601;89;21210;-80
2021/12/17 03:07:13;;;;;;;44.88;23.70;;;;;;;-0.03;100.00;100773.41;1573710;89;21081;-80
2021/12/17 03:10:01;;;;;;;45.03;23.50;;;;;;;-0.02;100.00;100766.13;1573692;89;21035;-79
2021/12/17 04:29:51;;;;;;;38.17;19.32;;;;;;;0.37;100.00;100694.98;1784534;80;23147;-80
2021/12/17 04:32:19;;;;;;;33.00;18.30;;;;;;;0.46;100.00;100701.11;1758490;81;21092;-81
2021/12/17 04:34:47;;;;;;;38.73;18.32;;;;;;;0.54;100.00;100696.58;1758577;81;21158;-81
2021/12/17 04:37:14;;;;;;;32.30;18.37;;;;;;;0.60;100.00;100697.66;1758697;81;21085;-81
2021/12/17 04:39:46;;;;;;;38.08;18.65;;;;;;;0.67;100.00;100696.20;1727092;81;21057;-81
2021/12/17 04:42:30;;;;;;;36.17;18.48;;;;;;;0.74;100.00;100680.55;1758355;81;21649;-81
2021/12/17 04:44:56;;;;;;;51.45;30.02;;;;;;;0.85;100.00;100683.21;1724185;81;21034;-84
2021/12/17 04:57:56;;;;;;;37.70;20.17;;;;;;;1.10;100.00;100682.78;1727687;82;21072;-81
2021/12/17 05:00:28;;;;;;;42.50;19.52;;;;;;;1.17;100.00;100681.28;1667834;84;22114;-85
2021/12/17 05:02:59;;;;;;;38.50;19.05;;;;;;;1.23;100.00;100674.64;1699210;82;21054;-81
2021/12/17 05:05:31;;;;;;;38.75;19.90;;;;;;;1.31;100.00;100673.10;1757724;81;21060;-83
2021/12/17 05:08:07;;;;;;;39.05;18.98;;;;;;;1.38;100.00;100675.84;1719239;83;21089;-82
2021/12/17 05:18:50;;;;;;;69.67;20.82;;;;;;;1.62;100.00;100672.81;1663480;83;21078;-81
2021/12/17 05:21:10;;;;;;;41.05;19.30;;;;;;;1.77;100.00;100666.28;1697135;83;21594;-80
2021/12/17 05:23:42;;;;;;;61.95;18.15;;;;;;;1.99;100.00;100665.45;1720344;83;21096;-82
2021/12/17 05:26:13;;;;;;;40.35;16.40;;;;;;;2.01;100.00;100667.53;1720227;83;21182;-81
2021/12/17 05:28:42;;;;;;;37.58;17.50;;;;;;;2.03;100.00;100670.42;1722135;82;21657;-84
2021/12/17 05:31:10;;;;;;;49.53;18.82;;;;;;;2.02;100.00;100660.22;1729274;83;21042;-84
2021/12/17 05:33:39;;;;;;;39.03;16.67;;;;;;;2.04;100.00;100668.70;1724914;83;21061;-82
2021/12/17 05:36:07;;;;;;;34.05;17.07;;;;;;;2.03;100.00;100660.14;1706887;83;21035;-83
2021/12/17 05:38:34;;;;;;;38.90;16.70;;;;;;;2.03;100.00;100660.14;1694537;84;21092;-81
2021/12/17 05:41:02;;;;;;;42.08;16.95;;;;;;;2.02;100.00;100657.64;1702543;83;22182;-81
2021/12/17 05:43:36;;;;;;;32.03;18.27;;;;;;;2.05;100.00;100652.38;1699405;84;21068;-81
2021/12/17 05:46:08;;;;;;;31.77;17.62;;;;;;;2.07;100.00;100657.01;1692361;83;21501;-81
2021/12/17 05:48:31;;;;;;;28.52;16.25;;;;;;;2.02;100.00;100649.94;1673078;83;21039;-82
2021/12/17 05:51:05;;;;;;;38.25;16.80;;;;;;;2.02;100.00;100649.94;1717067;83;21519;-80
2021/12/17 05:53:35;;;;;;;31.23;17.07;;;;;;;1.99;100.00;100649.62;1717140;83;21575;-84
2021/12/17 05:56:04;;;;;;;31.33;16.62;;;;;;;2.00;100.00;100648.70;1717041;83;21066;-81
2021/12/17 05:58:33;;;;;;;29.07;15.93;;;;;;;1.97;100.00;100650.55;1700931;83;21562;-82
2021/12/17 06:01:01;;;;;;;33.95;17.05;;;;;;;1.94;100.00;100656.64;1717269;83;21070;-81
2021/12/17 06:03:41;;;;;;;32.13;16.27;;;;;;;1.95;100.00;100652.36;1689712;83;21219;-83
2021/12/17 06:06:10;;;;;;;32.78;17.67;;;;;;;1.97;100.00;100650.55;1717173;83;21073;-84
2021/12/17 06:08:37;;;;;;;36.98;19.07;;;;;;;1.99;100.00;100639.77;1692941;83;21046;-85
2021/12/17 06:11:04;;;;;;;38.05;19.52;;;;;;;1.93;100.00;100640.84;1722745;81;21061;-84
2021/12/17 06:13:32;;;;;;;32.03;19.20;;;;;;;1.84;100.00;100645.89;1731380;81;21135;-84
2021/12/17 06:16:02;;;;;;;36.13;19.92;;;;;;;1.80;100.00;100645.64;1758891;81;20994;-82
2021/12/17 06:18:31;;;;;;;37.60;20.62;;;;;;;1.76;100.00;100644.06;1676492;81;21065;-83
2021/12/17 06:20:59;;;;;;;32.50;19.65;;;;;;;1.95;100.00;100645.48;1728915;82;21135;-85
2021/12/17 06:23:27;;;;;;;45.52;20.57;;;;;;;2.10;100.00;100636.35;1728895;82;21075;-81
2021/12/17 06:25:54;;;;;;;82.62;23.75;;;;;;;2.21;100.00;100642.34;1729466;82;21584;-81
2021/12/17 06:28:21;;;;;;;69.12;23.57;;;;;;;2.38;100.00;100638.27;1713765;82;21834;-83
2021/12/17 06:30:49;;;;;;;49.05;23.15;;;;;;;2.72;100.00;100636.41;1723745;82;21604;-81
2021/12/17 06:33:18;;;;;;;43.98;23.75;;;;;;;2.72;100.00;100636.41;1727455;82;21064;-80
2021/12/17 06:35:44;;;;;;;47.17;23.35;;;;;;;2.81;100.00;100628.32;1732435;82;21006;-81
2021/12/17 06:38:12;;;;;;;56.28;24.07;;;;;;;2.86;100.00;100628.56;1707242;82;21024;-81
2021/12/17 06:40:40;;;;;;;91.05;26.37;;;;;;;2.94;100.00;100628.63;1706431;82;21106;-84
2021/12/17 06:43:07;;;;;;;66.55;23.65;;;;;;;2.94;100.00;100628.63;1726960;82;21088;-86
2021/12/17 06:45:53;;;;;;;57.45;23.87;;;;;;;2.96;100.00;100629.41;1716001;82;21048;-82
2021/12/17 06:48:14;;;;;;;50.17;23.15;;;;;;;3.00;100.00;100629.65;1703061;82;21101;-84
2021/12/17 06:59:37;;;;;;;36.48;20.17;;;;;;;2.95;100.00;100634.16;1687242;83;21045;-84
2021/12/17 07:10:46;;;;;;;42.27;21.75;;;;;;;2.71;100.00;100625.73;1702381;81;21066;-82
2021/12/17 07:24:47;;;;;;;35.30;19.00;;;;;;;2.31;100.00;100637.66;1731954;81;21041;-82
2021/12/17 07:31:23;;;;;;;36.63;19.30;;;;;;;2.29;100.00;100626.60;1687869;84;21154;-83
2021/12/17 07:32:30;;;;;;;35.13;19.30;;;;;;;2.30;100.00;100628.28;1601958;85;21606;-86
2021/12/17 07:40:17;;;;;;;50.95;24.65;;;;;;;2.40;100.00;100621.88;1652483;83;21068;-83
2021/12/17 07:42:54;;;;;;;41.98;22.22;;;;;;;2.34;100.00;100630.66;1663969;84;21076;-86
2021/12/17 07:45:22;;;;;;;39.75;21.55;;;;;;;2.29;100.00;100630.45;1682378;83;21122;-82
2021/12/17 07:48:02;;;;;;;33.20;19.27;;;;;;;2.20;100.00;100636.35;1683331;83;21113;-81
2021/12/17 07:50:42;;;;;;;30.95;16.85;;;;;;;2.12;100.00;100625.57;1663084;84;21100;-82
2021/12/17 07:53:21;;;;;;;34.13;17.77;;;;;;;2.04;100.00;100623.75;1693764;84;21435;-84
2021/12/17 07:55:50;;;;;;;28.17;16.50;;;;;;;2.06;100.00;100628.36;1660113;84;21106;-82
2021/12/17 07:58:19;;;;;;;24.07;17.35;;;;;;;2.07;100.00;100632.61;1641165;86;21143;-83
2021/12/17 08:00:47;;;;;;;25.55;16.62;;;;;;;2.06;100.00;100633.50;1642286;85;21866;-81
2021/12/17 08:03:18;;;;;;;27.52;18.00;;;;;;;2.02;100.00;100621.69;1627463;87;21103;-85
2021/12/17 08:05:51;;;;;;;25.77;17.23;;;;;;;2.00;100.00;100629.43;1633589;86;21085;-82
2021/12/17 08:08:18;;;;;;;27.27;17.62;;;;;;;1.99;100.00;100624.36;1637507;85;21060;-83
2021/12/17 08:10:48;;;;;;;23.87;15.75;;;;;;;1.95;100.00;100624.93;1658044;84;21132;-82
2021/12/17 08:13:25;;;;;;;24.37;16.42;;;;;;;1.93;100.00;100629.74;1662058;84;21149;-82
2021/12/17 08:16:45;;;;;;;25.60;17.48;;;;;;;1.87;100.00;100630.37;1655323;83;21119;-82
2021/12/17 08:31:41;;;;;;;25.95;17.07;;;;;;;1.69;100.00;100606.22;1668377;84;21625;-81
2021/12/17 08:34:11;;;;;;;24.43;16.57;;;;;;;1.66;100.00;100609.36;1660461;85;21028;-81
2021/12/17 08:36:40;;;;;;;23.20;15.05;;;;;;;1.65;100.00;100604.69;1648313;85;21096;-82
2021/12/17 08:39:07;;;;;;;23.10;15.65;;;;;;;1.65;100.00;100597.41;1645280;86;21078;-85
2021/12/17 08:41:40;;;;;;;22.45;14.53;;;;;;;1.63;100.00;100591.52;1631957;85;21165;-82
2021/12/17 08:44:10;;;;;;;;;;;;;;;1.63;100.00;100595.38;1675622;85;21983;-82
2021/12/17 08:46:43;;;;;;;;;;;;;;;1.63;100.00;100587.67;1671441;85;20192;-81
2021/12/17 08:49:16;;;;;;;25.12;15.75;;;;;;;1.62;100.00;100586.00;1663460;85;20318;-84
2021/12/17 08:51:52;;;;;;;29.55;15.78;;;;;;;1.61;100.00;100581.75;1669016;84;21966;-81
2021/12/17 08:54:19;;;;;;;27.25;16.45;;;;;;;1.60;100.00;100575.80;1628146;85;21497;-80
2021/12/17 08:56:49;;;;;;;25.92;15.70;;;;;;;1.59;100.00;100580.54;1677922;85;21050;-79
2021/12/17 08:59:21;;;;;;;29.40;17.40;;;;;;;1.58;100.00;100577.58;1652234;85;21597;-80
2021/12/17 09:01:50;;;;;;;29.20;16.45;;;;;;;1.46;100.00;100576.74;1636974;85;21547;-80
2021/12/17 09:04:17;;;;;;;27.37;17.30;;;;;;;1.34;100.00;100580.60;1678321;85;21152;-79
2021/12/17 09:06:46;;;;;;;27.62;18.55;;;;;;;1.20;100.00;100576.01;1677380;85;21047;-85
2021/12/17 09:09:19;;;;;;;29.42;18.12;;;;;;;1.02;100.00;100578.34;1676313;85;21077;-82
2021/12/17 09:11:46;;;;;;;;;;;;;;;0.93;100.00;100573.08;1657825;85;21058;-80
2021/12/17 09:14:19;;;;;;;30.97;19.92;;;;;;;0.85;100.00;100567.38;1676959;85;20148;-81
2021/12/17 09:16:48;;;;;;;30.43;19.75;;;;;;;0.77;100.00;100570.66;1649967;85;21936;-80
2021/12/17 09:19:28;;;;;;;32.53;20.05;;;;;;;0.72;100.00;100570.00;1651213;85;21092;-79
2021/12/17 09:21:59;;;;;;;32.80;20.72;;;;;;;0.73;100.00;100571.21;1650638;85;21177;-81
2021/12/17 09:24:28;;;;;;;34.45;20.43;;;;;;;0.77;100.00;100565.53;1640283;84;21133;-80
2021/12/17 09:27:05;;;;;;;33.83;21.02;;;;;;;0.74;100.00;100555.41;1681171;84;21956;-81
2021/12/17 09:29:35;;;;;;;31.45;19.95;;;;;;;0.75;100.00;100555.80;1666451;84;21130;-81
2021/12/17 09:32:16;;;;;;;32.60;20.52;;;;;;;0.73;100.00;100552.45;1697349;83;21095;-81
2021/12/17 09:34:43;;;;;;;27.82;18.50;;;;;;;0.74;100.00;100549.00;1665982;84;21026;-80
2021/12/17 09:37:13;;;;;;;23.47;16.35;;;;;;;0.77;100.00;100537.34;1715766;81;20999;-81
2021/12/17 09:39:39;;;;;;;21.77;13.55;;;;;;;0.79;100.00;100538.13;1730440;81;21713;-82
2021/12/17 09:42:07;;;;;;;17.98;12.55;;;;;;;0.80;100.00;100538.98;1689192;83;22045;-81
2021/12/17 09:44:34;;;;;;;18.75;11.60;;;;;;;0.84;100.00;100537.50;1689383;83;21211;-84
2021/12/17 09:47:02;;;;;;;19.15;11.33;;;;;;;0.90;100.00;100540.30;1689485;84;21152;-84
2021/12/17 09:49:31;;;;;;;14.78;10.15;;;;;;;0.94;100.00;100542.70;1721804;82;21770;-81
2021/12/17 09:51:59;;;;;;;14.93;9.48;;;;;;;0.98;100.00;100536.19;1698560;82;21087;-83
2021/12/17 09:54:26;;;;;;;13.48;9.33;;;;;;;0.95;100.00;100533.30;1726929;82;21140;-81
2021/12/17 09:56:54;;;;;;;12.20;8.83;;;;;;;0.92;100.00;100530.38;1726858;83;21017;-81
2021/12/17 09:59:25;;;;;;;45.50;10.60;;;;;;;0.92;100.00;100520.58;1691072;82;21072;-88
2021/12/17 10:01:52;;;;;;;54.38;11.48;;;;;;;1.06;100.00;100522.64;1663767;84;21099;-83
2021/12/17 10:04:29;;;;;;;23.65;10.75;;;;;;;1.33;100.00;100516.92;1691178;84;21575;-84
2021/12/17 10:07:21;;;;;;;28.83;10.85;;;;;;;1.63;100.00;100510.66;1663914;84;21095;-84
2021/12/17 10:09:55;;;;;;;17.87;9.13;;;;;;;1.84;100.00;100512.83;1716810;82;21578;-84
2021/12/17 10:12:30;;;;;;;18.52;9.53;;;;;;;1.95;100.00;100513.67;1692729;83;21100;-83
2021/12/17 10:15:10;;;;;;;19.32;9.03;;;;;;;1.89;100.00;100507.05;1664029;83;21014;-83
2021/12/17 10:18:00;;;;;;;11.60;7.85;;;;;;;1.92;100.00;100508.65;1517515;84;65917;-84
2021/12/17 10:20:55;;;;;;;14.47;7.87;;;;;;;1.88;100.00;100502.34;1618489;87;21684;-85
2021/12/17 10:23:28;;;;;;;16.50;7.90;;;;;;;1.84;100.00;100500.81;1593482;87;21093;-85
2021/12/17 10:25:59;;;;;;;10.72;8.13;;;;;;;1.89;100.00;100495.48;1578822;88;21042;-83
2021/12/17 10:28:28;;;;;;;10.68;7.83;;;;;;;2.04;100.00;100492.75;1612267;87;21117;-86
2021/12/17 10:30:56;;;;;;;11.30;7.80;;;;;;;2.03;100.00;100498.31;1629087;86;21499;-86
2021/12/17 10:33:29;;;;;;;10.98;7.65;;;;;;;2.00;100.00;100491.19;1602340;87;21122;-85
2021/12/17 10:36:03;;;;;;;12.45;7.78;;;;;;;1.99;100.00;100501.08;1610933;87;21182;-87
2021/12/17 10:38:35;;;;;;;13.40;7.90;;;;;;;1.89;100.00;100497.59;1608941;88;21085;-85
2021/12/17 10:41:08;;;;;;;10.63;8.08;;;;;;;1.73;100.00;100492.69;1593958;89;22261;-86
2021/12/17 10:43:41;;;;;;;8.68;7.33;;;;;;;1.66;100.00;100489.98;1623550;88;21098;-85
2021/12/17 10:46:24;;;;;;;10.13;7.72;;;;;;;1.64;100.00;100488.77;1605320;87;21082;-86
2021/12/17 10:49:00;;;;;;;9.45;7.95;;;;;;;1.57;100.00;100498.44;1619078;87;21095;-86
2021/12/17 10:54:20;;;;;;;9.03;7.70;;;;;;;1.49;100.00;100497.08;1603239;88;21031;-84
2021/12/17 10:56:54;;;;;;;11.43;8.78;;;;;;;1.39;100.00;100501.75;1645140;86;21136;-84
2021/12/17 10:59:31;;;;;;;10.13;8.15;;;;;;;1.27;100.00;100497.92;1633775;86;22050;-83
2021/12/17 11:02:10;;;;;;;13.32;10.13;;;;;;;1.24;100.00;100492.89;1604940;87;21070;-85
2021/12/17 11:04:40;;;;;;;11.95;9.05;;;;;;;1.27;100.00;100486.38;1601500;89;21049;-83
2021/12/17 11:07:15;;;;;;;12.53;9.57;;;;;;;1.25;100.00;100485.13;1604061;89;21089;-84
2021/12/17 11:10:00;;;;;;;14.07;9.35;;;;;;;1.30;100.00;100484.95;1581030;89;21109;-84
2021/12/17 11:12:34;;;;;;;11.57;8.43;;;;;;;1.27;100.00;100477.39;1593022;89;21663;-84
2021/12/17 11:15:24;;;;;;;11.25;8.40;;;;;;;1.31;100.00;100474.27;1602413;88;21100;-84
2021/12/17 11:18:05;;;;;;;12.68;9.18;;;;;;;1.33;100.00;100473.30;1602712;88;21630;-84
2021/12/17 11:20:39;;;;;;;14.55;10.23;;;;;;;1.28;100.00;100466.24;1602297;88;21072;-85
2021/12/17 11:23:13;;;;;;;12.00;9.30;;;;;;;1.28;100.00;100460.26;1602538;88;21062;-83
2021/12/17 11:25:49;;;;;;;12.40;8.78;;;;;;;1.25;100.00;100450.50;1607908;87;21167;-84
2021/12/17 11:28:22;;;;;;;10.58;8.80;;;;;;;1.22;100.00;100449.35;1597924;86;22215;-82
2021/12/17 11:30:51;;;;;;;14.33;10.28;;;;;;;1.22;100.00;100451.06;1604121;88;21346;-82
2021/12/17 11:33:18;;;;;;;11.22;8.53;;;;;;;1.17;100.00;100451.23;1644125;86;21165;-83
2021/12/17 11:35:49;;;;;;;12.55;9.13;;;;;;;1.13;100.00;100450.13;1625878;87;21589;-82
2021/12/17 11:38:50;;;;;;;15.13;10.63;;;;;;;1.13;100.00;100456.11;1607188;87;21164;-83
2021/12/17 11:41:22;;;;;;;12.37;8.95;;;;;;;1.11;100.00;100455.33;1593835;89;21064;-82
2021/12/17 11:44:00;;;;;;;12.45;8.83;;;;;;;1.10;100.00;100462.63;1614392;87;22411;-86
2021/12/17 11:46:31;;;;;;;10.80;8.85;;;;;;;1.06;100.00;100468.78;1619485;88;21106;-86
2021/12/17 11:49:04;;;;;;;12.18;8.63;;;;;;;1.06;100.00;100469.61;1619353;87;21502;-85
2021/12/17 11:51:34;;;;;;;11.30;8.85;;;;;;;1.05;100.00;100469.67;1599889;87;21988;-85
2021/12/17 11:54:09;;;;;;;12.68;8.80;;;;;;;1.05;100.00;100467.11;1619022;88;21038;-86
2021/12/17 11:56:54;;;;;;;13.43;8.95;;;;;;;1.05;100.00;100474.80;1609844;87;21087;-87
2021/12/17 11:59:33;;;;;;;9.43;7.67;;;;;;;1.04;100.00;100468.00;1616597;88;21046;-87
2021/12/17 12:02:12;;;;;;;8.15;7.08;;;;;;;1.00;100.00;100472.88;1622607;87;21081;-87
2021/12/17 12:04:49;;;;;;;10.03;7.58;;;;;;;0.93;100.00;100462.81;1610516;88;21034;-86
2021/12/17 12:07:28;;;;;;;11.50;7.78;;;;;;;0.98;100.00;100463.11;1611008;88;21151;-82
2021/12/17 12:10:15;;;;;;;12.85;8.18;;;;;;;1.05;100.00;100460.70;1587417;87;21101;-82
2021/12/17 12:12:52;;;;;;;13.50;8.40;;;;;;;1.09;100.00;100458.39;1625679;87;21077;-82
2021/12/17 12:15:30;;;;;;;13.08;10.13;;;;;;;1.14;100.00;100455.66;1628696;87;21031;-82
2021/12/17 12:18:10;;;;;;;16.02;9.13;;;;;;;1.21;100.00;100453.23;1581432;88;21287;-82
2021/12/17 12:20:53;;;;;;;9.40;6.90;;;;;;;1.26;100.00;100449.61;1590619;90;21645;-81
2021/12/17 12:23:34;;;;;;;10.90;6.65;;;;;;;1.37;100.00;100449.18;1624612;88;21088;-82
2021/12/17 12:26:15;;;;;;;10.98;6.72;;;;;;;1.44;100.00;100449.78;1597944;88;21067;-82
2021/12/17 12:28:57;;;;;;;12.80;7.12;;;;;;;1.49;100.00;100456.84;1625581;88;21675;-84
2021/12/17 12:31:32;;;;;;;11.08;7.90;;;;;;;1.58;100.00;100465.46;1622489;86;21152;-82
2021/12/17 12:34:12;;;;;;;11.22;7.87;;;;;;;1.70;100.00;100473.58;1611612;88;21055;-83
2021/12/17 12:37:11;;;;;;;18.50;8.63;;;;;;;1.72;100.00;100476.92;1597655;87;21083;-82
2021/12/17 12:39:53;;;;;;;15.83;7.50;;;;;;;1.75;100.00;100477.25;1584005;88;21030;-80
2021/12/17 12:42:35;;;;;;;10.08;7.67;;;;;;;1.81;100.00;100472.67;1602920;88;21048;-82
2021/12/17 12:45:09;;;;;;;8.90;7.05;;;;;;;1.88;100.00;100480.52;1615728;87;21163;-80
2021/12/17 12:47:45;;;;;;;13.00;11.28;;;;;;;1.94;100.00;100482.46;1616189;87;21023;-83
2021/12/17 12:50:19;;;;;;;16.75;12.07;;;;;;;2.00;100.00;100477.89;1599498;88;21101;-83
2021/12/17 12:52:55;;;;;;;20.60;10.32;;;;;;;2.06;100.00;100471.66;1604448;88;21064;-84
2021/12/17 12:55:43;;;;;;;41.55;17.02;;;;;;;2.07;100.00;100472.52;1604723;88;21103;-83
2021/12/17 12:58:20;;;;;;;23.90;10.32;;;;;;;2.04;100.00;100481.19;1636920;86;21140;-82
2021/12/17 13:00:58;;;;;;;21.95;9.20;;;;;;;2.02;100.00;100485.55;1614105;88;21600;-82
2021/12/17 13:03:29;;;;;;;28.73;9.38;;;;;;;2.00;100.00;100492.02;1589209;89;21102;-83
2021/12/17 13:06:01;;;;;;;13.15;7.80;;;;;;;1.93;100.00;100490.59;1576118;89;21608;-83
2021/12/17 13:08:32;;;;;;;17.67;7.70;;;;;;;1.89;100.00;100492.92;1597175;88;21105;-82
2021/12/17 13:11:06;;;;;;;13.80;8.90;;;;;;;1.81;100.00;100493.68;1642465;86;21129;-81
2021/12/17 13:13:43;;;;;;;11.05;8.18;;;;;;;1.70;100.00;100493.66;1604691;88;21035;-84
2021/12/17 13:21:45;;;;;;;27.67;17.50;;;;;;;1.43;100.00;100508.41;1608716;88;21099;-84
2021/12/17 13:24:23;;;;;;;28.95;18.30;;;;;;;1.38;100.00;100507.30;1602395;87;21158;-81
2021/12/17 13:27:09;;;;;;;28.15;20.12;;;;;;;1.32;100.00;100499.03;1627009;86;28280;-83
2021/12/17 13:29:44;;;;;;;20.45;11.73;;;;;;;1.25;100.00;100502.27;1598120;89;21093;-82
2021/12/17 13:32:22;;;;;;;17.60;10.50;;;;;;;1.18;100.00;100486.72;1613302;88;21061;-80
2021/12/17 13:34:56;;;;;;;19.12;11.35;;;;;;;1.12;100.00;100490.34;1599202;88;21621;-80
2021/12/17 13:37:57;;;;;;;14.87;11.38;;;;;;;1.08;100.00;100485.78;1606053;89;21570;-80
2021/12/17 13:40:36;;;;;;;18.67;13.65;;;;;;;1.09;100.00;100489.17;1600611;88;21121;-81
2021/12/17 13:43:03;;;;;;;17.60;13.60;;;;;;;1.06;100.00;100484.99;1604682;86;21102;-81
2021/12/17 13:45:35;;;;;;;22.35;13.43;;;;;;;1.05;100.00;100488.45;1591830;88;21051;-82
2021/12/17 13:48:05;;;;;;;19.85;14.53;;;;;;;1.09;100.00;100487.45;1591667;89;21603;-80
2021/12/17 13:50:41;;;;;;;17.23;12.45;;;;;;;1.15;100.00;100494.09;1589492;89;21718;-81
2021/12/17 13:53:18;;;;;;;18.02;11.33;;;;;;;1.18;100.00;100488.83;1620001;88;21045;-80
2021/12/17 13:55:50;;;;;;;14.55;11.30;;;;;;;1.19;100.00;100485.83;1588933;89;21543;-80
2021/12/17 13:58:24;;;;;;;14.87;10.63;;;;;;;1.20;100.00;100487.50;1602064;88;21142;-80
2021/12/17 14:01:01;;;;;;;13.65;9.95;;;;;;;1.23;100.00;100490.79;1587620;88;21824;-82
2021/12/17 14:03:34;;;;;;;13.70;11.33;;;;;;;1.29;100.00;100495.28;1593212;88;21051;-81
2021/12/17 14:06:27;;;;;;;15.95;11.48;;;;;;;1.33;100.00;100493.83;1580441;90;21047;-80
2021/12/17 14:08:40;;;;;;;12.90;9.53;;;;;;;1.38;100.00;100495.76;1580639;89;21081;-80
2021/12/17 14:11:31;;;;;;;13.70;9.53;;;;;;;1.40;100.00;100499.11;1568412;90;21074;-81
2021/12/17 14:14:00;;;;;;;14.80;9.95;;;;;;;1.40;100.00;100500.86;1593616;89;21069;-79
2021/12/17 14:16:37;;;;;;;11.30;9.30;;;;;;;1.42;100.00;100501.61;1582047;89;21083;-81
2021/12/17 14:19:05;;;;;;;12.90;10.13;;;;;;;1.43;100.00;100497.33;1601239;89;21661;-82
2021/12/17 14:21:36;;;;;;;12.23;9.58;;;;;;;1.39;100.00;100492.30;1579626;89;21609;-81
2021/12/17 14:24:04;;;;;;;10.78;8.88;;;;;;;1.39;100.00;100497.44;1583724;89;21591;-80
2021/12/17 14:26:33;;;;;;;10.58;9.28;;;;;;;1.41;100.00;100499.93;1601197;89;21130;-79
2021/12/17 14:29:12;;;;;;;13.03;10.70;;;;;;;1.39;100.00;100500.46;1582611;89;21355;-80
2021/12/17 14:31:43;;;;;;;15.35;11.55;;;;;;;1.38;100.00;100508.59;1605467;88;21077;-80
2021/12/17 14:34:16;;;;;;;17.73;13.07;;;;;;;1.35;100.00;100505.30;1612340;87;21081;-81
2021/12/17 14:36:43;;;;;;;17.10;12.23;;;;;;;1.28;100.00;100504.72;1611857;87;21073;-79
2021/12/17 14:39:17;;;;;;;17.37;12.50;;;;;;;1.24;100.00;100504.44;1625615;87;21044;-80
2021/12/17 14:41:54;;;;;;;16.87;11.65;;;;;;;1.20;100.00;100501.62;1613721;85;21852;-82
2021/12/17 14:44:34;;;;;;;15.83;12.10;;;;;;;1.13;100.00;100501.00;1612229;87;21067;-81
2021/12/17 14:47:02;;;;;;;17.45;12.30;;;;;;;1.09;100.00;100501.99;1599084;87;21113;-80
2021/12/17 15:00:49;;;;;;;15.55;12.20;;;;;;;1.09;100.00;100504.13;1655196;86;21114;-80
2021/12/17 15:05:53;;;;;;;18.67;13.30;;;;;;;1.15;100.00;100508.20;1641648;85;21054;-81
2021/12/17 15:08:23;;;;;;;18.75;13.25;;;;;;;1.17;100.00;100511.98;1658662;86;21014;-80
2021/12/17 15:10:55;;;;;;;17.77;13.13;;;;;;;1.18;100.00;100511.09;1660287;85;21131;-80
2021/12/17 15:13:24;;;;;;;16.67;13.03;;;;;;;1.18;100.00;100510.63;1648889;86;21069;-80
2021/12/17 15:15:54;;;;;;;18.60;15.08;;;;;;;1.18;100.00;100513.66;1658365;85;21168;-80
2021/12/17 15:18:22;;;;;;;20.52;15.43;;;;;;;1.21;100.00;100517.37;1637499;86;21124;-80
2021/12/17 15:20:53;;;;;;;22.40;15.88;;;;;;;1.19;100.00;100511.48;1640372;86;21873;-80
2021/12/17 15:23:24;;;;;;;17.73;13.18;;;;;;;1.18;100.00;100515.76;1659894;85;21066;-81
2021/12/17 15:26:00;;;;;;;15.70;13.65;;;;;;;1.18;100.00;100504.67;1661465;85;21077;-80
2021/12/17 15:28:27;;;;;;;18.17;13.22;;;;;;;1.20;100.00;100510.13;1646977;86;21082;-80
2021/12/17 15:31:04;;;;;;;24.10;16.80;;;;;;;1.23;100.00;100512.59;1656387;85;21049;-80
2021/12/17 15:33:31;;;;;;;17.50;13.88;;;;;;;1.28;100.00;100510.28;1671496;85;21830;-83
2021/12/17 15:35:58;;;;;;;20.37;14.28;;;;;;;1.35;100.00;100514.29;1656891;85;21104;-84
2021/12/17 15:38:25;;;;;;;19.75;15.08;;;;;;;1.42;100.00;100509.30;1661819;85;21630;-83
2021/12/17 15:40:53;;;;;;;16.15;12.80;;;;;;;1.47;100.00;100512.55;1651184;85;21116;-83
2021/12/17 15:43:22;;;;;;;20.00;12.70;;;;;;;1.53;100.00;100511.02;1655366;85;21070;-80
2021/12/17 15:45:58;;;;;;;20.92;12.65;;;;;;;1.58;100.00;100511.66;1654857;85;21509;-80
2021/12/17 15:48:27;;;;;;;20.65;14.10;;;;;;;1.65;100.00;100517.83;1667510;85;21113;-80
2021/12/17 15:50:54;;;;;;;16.30;12.35;;;;;;;1.69;100.00;100518.11;1637106;86;21590;-81
2021/12/17 15:53:22;;;;;;;24.30;13.78;;;;;;;1.74;100.00;100512.34;1673030;85;21074;-80